createdAt,value
2022-08-20T00:01:48.052Z,2.20
2022-08-20T00:04:33.763Z,1.90
2022-08-20T00:07:19.307Z,1.42
2022-08-20T00:10:07.024Z,1.55
2022-08-20T00:12:52.863Z,1.58
2022-08-20T00:15:39.872Z,1.83
2022-08-20T00:18:26.072Z,1.50
2022-08-20T00:21:18.775Z,1.48
2022-08-20T00:24:05.967Z,1.65
2022-08-20T00:26:52.643Z,1.50
2022-08-20T00:29:38.515Z,1.55
2022-08-20T00:32:24.306Z,1.30
2022-08-20T00:35:12.997Z,2.92
2022-08-20T00:38:00.799Z,1.52
2022-08-20T00:40:52.005Z,1.65
2022-08-20T00:43:41.588Z,1.42
2022-08-20T00:46:31.968Z,1.20
2022-08-20T00:49:22.839Z,1.67
2022-08-20T00:52:19.301Z,1.80
2022-08-20T00:55:06.565Z,1.58
2022-08-20T00:58:01.729Z,2.30
2022-08-20T01:00:49.802Z,1.77
2022-08-20T01:03:36.502Z,1.90
2022-08-20T01:06:22.829Z,1.85
2022-08-20T01:09:08.655Z,1.58
2022-08-20T01:11:54.688Z,2.10
2022-08-20T01:14:45.660Z,1.98
2022-08-20T01:17:34.986Z,1.42
2022-08-20T01:20:25.971Z,1.95
2022-08-20T01:23:39.278Z,1.75
2022-08-20T01:26:37.778Z,1.27
2022-08-20T01:29:27.823Z,1.98
2022-08-20T01:32:13.435Z,1.42
2022-08-20T01:34:58.910Z,1.42
2022-08-20T01:37:45.965Z,2.47
2022-08-20T01:41:08.356Z,1.73
2022-08-20T01:43:58.355Z,1.95
2022-08-20T01:46:46.981Z,1.50
2022-08-20T01:49:35.311Z,1.10
2022-08-20T01:52:40.053Z,2.50
2022-08-20T01:55:27.562Z,1.90
2022-08-20T01:58:12.928Z,1.80
2022-08-20T02:00:58.465Z,2.30
2022-08-20T02:03:44.820Z,1.50
2022-08-20T02:06:33.898Z,2.22
2022-08-20T02:09:19.738Z,1.65
2022-08-20T02:12:07.315Z,1.45
2022-08-20T02:14:54.645Z,1.73
2022-08-20T02:17:41.864Z,1.75
2022-08-20T02:20:30.221Z,1.35
2022-08-20T02:23:16.255Z,2.35
2022-08-20T02:26:01.538Z,1.77
2022-08-20T02:28:49.876Z,1.45
2022-08-20T02:31:36.669Z,1.90
2022-08-20T02:34:29.603Z,1.98
2022-08-20T02:37:16.823Z,1.73
2022-08-20T02:40:04.386Z,1.33
2022-08-20T02:42:50.010Z,3.13
2022-08-20T02:45:37.423Z,1.85
2022-08-20T02:48:23.173Z,1.45
2022-08-20T02:51:09.148Z,1.65
2022-08-20T02:53:54.424Z,2.03
2022-08-20T02:56:40.314Z,1.85
2022-08-20T02:59:26.227Z,1.80
2022-08-20T03:02:12.235Z,2.00
2022-08-20T03:04:57.933Z,1.60
2022-08-20T03:07:46.997Z,1.90
2022-08-20T03:10:34.835Z,1.90
2022-08-20T03:13:21.817Z,1.88
2022-08-20T03:16:08.357Z,1.60
2022-08-20T03:18:53.804Z,1.80
2022-08-20T03:21:39.433Z,2.80
2022-08-20T03:24:25.521Z,1.88
2022-08-20T03:27:12.671Z,2.40
2022-08-20T03:29:58.072Z,1.60
2022-08-20T03:32:44.996Z,2.05
2022-08-20T03:35:32.173Z,2.05
2022-08-20T03:38:29.236Z,1.50
2022-08-20T03:41:19.113Z,1.70
2022-08-20T03:44:06.844Z,1.50
2022-08-20T03:46:52.740Z,1.65
2022-08-20T03:49:38.217Z,2.22
2022-08-20T03:52:23.741Z,2.13
2022-08-20T03:55:10.652Z,1.60
2022-08-20T03:58:02.165Z,2.45
2022-08-20T04:00:50.705Z,2.20
2022-08-20T04:03:36.439Z,1.67
2022-08-20T04:06:22.029Z,1.92
2022-08-20T04:09:07.385Z,1.80
2022-08-20T04:11:58.739Z,2.00
2022-08-20T04:14:44.048Z,1.50
2022-08-20T04:17:29.469Z,1.65
2022-08-20T04:20:19.068Z,1.85
2022-08-20T04:23:05.471Z,1.83
2022-08-20T04:25:51.238Z,2.10
2022-08-20T04:28:37.141Z,1.65
2022-08-20T04:31:25.399Z,2.05
2022-08-20T04:34:11.371Z,1.63
2022-08-20T04:36:56.926Z,1.75
2022-08-20T04:39:42.488Z,2.22
2022-08-20T04:42:27.992Z,1.90
2022-08-20T04:45:14.995Z,2.13
2022-08-20T04:48:07.114Z,2.00
2022-08-20T04:50:55.881Z,2.13
2022-08-20T04:53:45.169Z,2.05
2022-08-20T04:56:39.795Z,2.75
2022-08-20T04:59:27.916Z,2.10
2022-08-20T05:02:13.396Z,2.55
2022-08-20T05:05:02.674Z,1.88
2022-08-20T05:07:48.621Z,1.92
2022-08-20T05:10:36.858Z,2.28
2022-08-20T05:13:27.093Z,1.98
2022-08-20T05:16:12.897Z,1.92
2022-08-20T05:18:58.255Z,1.90
2022-08-20T05:21:43.791Z,1.85
2022-08-20T05:24:29.440Z,1.55
2022-08-20T05:27:24.559Z,1.73
2022-08-20T05:30:13.616Z,2.40
2022-08-20T05:33:06.864Z,1.63
2022-08-20T05:35:53.969Z,1.70
2022-08-20T05:38:39.497Z,2.50
2022-08-20T05:41:27.734Z,2.70
2022-08-20T05:44:15.589Z,1.85
2022-08-20T05:47:04.080Z,1.75
2022-08-20T05:49:49.757Z,1.63
2022-08-20T05:52:35.829Z,1.73
2022-08-20T05:55:22.052Z,2.28
2022-08-20T05:58:14.142Z,3.47
2022-08-20T06:00:59.975Z,2.22
2022-08-20T06:04:04.228Z,2.15
2022-08-20T06:06:51.735Z,1.88
2022-08-20T06:09:37.400Z,2.42
2022-08-20T06:12:22.811Z,2.70
2022-08-20T06:15:09.167Z,1.73
2022-08-20T06:17:58.143Z,2.00
2022-08-20T06:20:43.929Z,1.67
2022-08-20T06:23:54.370Z,2.17
2022-08-20T06:26:35.636Z,1.90
2022-08-20T06:29:20.961Z,1.88
2022-08-20T06:32:06.850Z,1.80
2022-08-20T06:34:56.537Z,1.75
2022-08-20T06:37:43.166Z,2.55
2022-08-20T06:40:29.362Z,1.73
2022-08-20T06:43:14.805Z,1.60
2022-08-20T06:46:02.323Z,2.58
2022-08-20T06:48:47.663Z,1.67
2022-08-20T06:51:34.198Z,2.25
2022-08-20T06:54:19.916Z,2.10
2022-08-20T06:57:05.481Z,2.40
2022-08-20T06:59:54.235Z,2.38
2022-08-20T07:02:40.690Z,2.17
2022-08-20T07:05:30.013Z,1.55
2022-08-20T07:08:18.758Z,2.03
2022-08-20T07:11:04.148Z,2.88
2022-08-20T07:13:49.820Z,1.98
2022-08-20T07:16:35.282Z,2.10
2022-08-20T07:19:20.936Z,1.60
2022-08-20T07:22:06.232Z,2.40
2022-08-20T07:24:52.312Z,2.08
2022-08-20T07:27:37.790Z,2.50
2022-08-20T07:30:56.787Z,2.60
2022-08-20T07:33:44.364Z,2.40
2022-08-20T07:36:30.004Z,2.08
2022-08-20T07:39:15.657Z,2.72
2022-08-20T07:42:07.215Z,1.92
2022-08-20T07:44:52.816Z,1.80
2022-08-20T07:47:39.696Z,2.25
2022-08-20T07:50:26.806Z,2.28
2022-08-20T07:53:12.384Z,1.88
2022-08-20T07:55:58.900Z,2.05
2022-08-20T07:58:49.741Z,2.83
2022-08-20T08:01:35.591Z,2.28
2022-08-20T08:04:21.249Z,2.15
2022-08-20T08:07:07.092Z,3.33
2022-08-20T08:09:53.958Z,2.30
2022-08-20T08:12:43.437Z,1.88
2022-08-20T08:15:32.840Z,2.05
2022-08-20T08:18:27.716Z,1.60
2022-08-20T08:21:16.485Z,1.35
2022-08-20T08:24:02.669Z,1.55
2022-08-20T08:26:50.035Z,1.52
2022-08-20T08:29:36.962Z,1.50
2022-08-20T08:32:22.236Z,1.67
2022-08-20T08:35:09.064Z,2.03
2022-08-20T08:37:54.468Z,1.50
2022-08-20T08:40:40.554Z,1.92
2022-08-20T08:43:31.654Z,1.33
2022-08-20T08:46:22.661Z,1.42
2022-08-20T08:49:12.285Z,0.93
2022-08-20T08:52:22.338Z,1.13
2022-08-20T08:55:16.052Z,1.58
2022-08-20T08:58:04.338Z,1.27
2022-08-20T09:01:54.054Z,1.13
2022-08-20T09:04:39.257Z,1.20
2022-08-20T09:07:31.288Z,1.17
2022-08-20T09:10:17.600Z,1.10
2022-08-20T09:13:09.071Z,1.58
2022-08-20T09:15:54.572Z,1.00
2022-08-20T09:18:40.548Z,1.58
2022-08-20T09:21:26.306Z,1.60
2022-08-20T09:24:11.752Z,0.88
2022-08-20T09:26:57.321Z,1.23
2022-08-20T09:29:42.907Z,1.60
2022-08-20T09:32:28.799Z,1.27
2022-08-20T09:35:14.376Z,1.52
2022-08-20T09:38:00.220Z,1.52
2022-08-20T09:40:46.048Z,1.20
2022-08-20T09:43:31.426Z,1.25
2022-08-20T09:46:16.811Z,1.30
2022-08-20T09:49:02.293Z,1.20
2022-08-20T09:51:47.924Z,1.35
2022-08-20T09:54:34.851Z,2.60
2022-08-20T09:57:20.790Z,1.27
2022-08-20T10:00:09.010Z,1.20
2022-08-20T10:02:54.762Z,1.63
2022-08-20T10:05:40.069Z,1.33
2022-08-20T10:08:25.953Z,1.50
2022-08-20T10:11:14.715Z,1.67
2022-08-20T10:14:01.303Z,1.40
2022-08-20T10:16:46.643Z,1.45
2022-08-20T10:19:32.726Z,1.02
2022-08-20T10:22:18.329Z,1.10
2022-08-20T10:25:05.490Z,1.45
2022-08-20T10:27:51.278Z,2.22
2022-08-20T10:30:36.913Z,1.33
2022-08-20T10:33:22.428Z,1.63
2022-08-20T10:36:13.869Z,1.30
2022-08-20T10:38:59.316Z,1.95
2022-08-20T10:41:44.812Z,1.80
2022-08-20T10:44:30.520Z,1.27
2022-08-20T10:47:23.879Z,1.00
2022-08-20T10:50:15.303Z,0.98
2022-08-20T10:53:00.705Z,1.45
2022-08-20T10:55:46.459Z,1.40
2022-08-20T10:58:39.269Z,2.03
2022-08-20T11:01:31.264Z,1.73
2022-08-20T11:04:18.784Z,1.75
2022-08-20T11:07:50.678Z,1.95
2022-08-20T11:10:42.194Z,1.55
2022-08-20T11:13:27.946Z,1.25
2022-08-20T11:16:14.210Z,1.50
2022-08-20T11:18:59.442Z,1.65
2022-08-20T11:21:45.092Z,1.48
2022-08-20T11:24:31.077Z,1.45
2022-08-20T11:27:23.243Z,1.30
2022-08-20T11:30:11.957Z,1.95
2022-08-20T11:32:59.423Z,1.98
2022-08-20T11:35:49.122Z,1.63
2022-08-20T11:38:35.393Z,1.92
2022-08-20T11:41:21.005Z,1.17
2022-08-20T11:44:21.081Z,1.60
2022-08-20T11:47:07.971Z,1.48
2022-08-20T11:50:08.301Z,1.50
2022-08-20T11:52:53.612Z,1.55
2022-08-20T11:55:39.562Z,1.30
2022-08-20T11:58:25.356Z,1.13
2022-08-20T12:01:10.826Z,1.40
2022-08-20T12:03:56.423Z,1.35
2022-08-20T12:06:42.032Z,1.20
2022-08-20T12:09:29.018Z,1.33
2022-08-20T12:12:15.886Z,0.88
2022-08-20T12:15:01.264Z,2.00
2022-08-20T12:17:46.578Z,1.83
2022-08-20T12:20:32.022Z,1.23
2022-08-20T12:23:17.482Z,1.30
2022-08-20T12:26:03.432Z,1.00
2022-08-20T12:28:48.871Z,1.13
2022-08-20T12:31:34.319Z,1.30
2022-08-20T12:34:19.742Z,0.95
2022-08-20T12:37:12.810Z,1.00
2022-08-20T12:40:05.255Z,1.25
2022-08-20T12:42:50.895Z,1.13
2022-08-20T12:45:37.267Z,1.20
2022-08-20T12:48:23.085Z,0.90
2022-08-20T12:51:08.483Z,1.10
2022-08-20T12:53:53.892Z,1.10
2022-08-20T12:56:39.600Z,1.40
2022-08-20T12:59:26.411Z,1.75
2022-08-20T13:02:17.496Z,1.17
2022-08-20T13:05:06.038Z,0.93
2022-08-20T13:07:52.704Z,1.17
2022-08-20T13:10:47.144Z,1.95
2022-08-20T13:13:32.469Z,1.52
2022-08-20T13:16:17.944Z,1.35
2022-08-20T13:19:03.302Z,1.40
2022-08-20T13:21:54.794Z,1.17
2022-08-20T13:24:41.119Z,1.17
2022-08-20T13:27:26.433Z,1.10
2022-08-20T13:30:16.153Z,1.30
2022-08-20T13:33:02.258Z,1.45
2022-08-20T13:35:47.785Z,1.20
2022-08-20T13:38:33.353Z,1.23
2022-08-20T13:41:18.790Z,0.90
2022-08-20T13:44:04.549Z,1.35
2022-08-20T13:46:50.612Z,1.77
2022-08-20T13:49:36.166Z,1.20
2022-08-20T13:52:21.879Z,1.10
2022-08-20T13:55:09.472Z,1.55
2022-08-20T13:57:56.786Z,1.65
2022-08-20T14:00:42.332Z,1.02
2022-08-20T14:03:27.645Z,1.83
2022-08-20T14:06:13.496Z,1.17
2022-08-20T14:08:59.001Z,1.25
2022-08-20T14:11:44.499Z,1.13
2022-08-20T14:14:30.082Z,1.30
2022-08-20T14:17:40.295Z,1.75
2022-08-20T14:20:32.373Z,1.08
2022-08-20T14:23:18.107Z,1.17
2022-08-20T14:26:03.634Z,1.40
2022-08-20T14:28:49.216Z,1.30
2022-08-20T14:31:34.754Z,1.13
2022-08-20T14:34:20.334Z,1.30
2022-08-20T14:37:13.301Z,1.33
2022-08-20T14:40:00.958Z,1.25
2022-08-20T14:42:47.813Z,1.05
2022-08-20T14:45:37.567Z,1.30
2022-08-20T14:48:25.445Z,1.30
2022-08-20T14:51:11.015Z,1.10
2022-08-20T14:53:56.692Z,1.33
2022-08-20T14:56:42.064Z,1.38
2022-08-20T14:59:27.983Z,1.45
2022-08-20T15:02:15.170Z,1.40
2022-08-20T15:05:00.852Z,1.58
2022-08-20T15:07:49.106Z,1.92
2022-08-20T15:10:38.766Z,1.25
2022-08-20T15:13:24.370Z,1.35
2022-08-20T15:16:09.973Z,1.58
2022-08-20T15:18:58.128Z,1.45
2022-08-20T15:21:45.861Z,1.40
2022-08-20T15:24:31.342Z,1.30
2022-08-20T15:27:22.648Z,1.20
2022-08-20T15:30:13.514Z,1.88
2022-08-20T15:32:58.937Z,1.70
2022-08-20T15:35:44.684Z,1.77
2022-08-20T15:38:30.549Z,1.50
2022-08-20T15:41:15.802Z,1.58
2022-08-20T15:44:01.501Z,1.58
2022-08-20T15:46:46.720Z,2.13
2022-08-20T15:49:32.296Z,1.40
2022-08-20T15:52:18.144Z,1.30
2022-08-20T15:55:04.767Z,2.85
2022-08-20T15:57:57.328Z,1.60
2022-08-20T16:00:42.574Z,1.20
2022-08-20T16:03:37.542Z,1.45
2022-08-20T16:06:27.886Z,1.20
2022-08-20T16:09:35.596Z,1.20
2022-08-20T16:12:47.348Z,1.50
2022-08-20T16:15:39.542Z,1.50
2022-08-20T16:18:28.063Z,2.22
2022-08-20T16:21:16.883Z,1.35
2022-08-20T16:24:02.691Z,1.48
2022-08-20T16:27:07.713Z,2.22
2022-08-20T16:30:11.829Z,1.92
2022-08-20T16:33:12.712Z,2.75
2022-08-20T16:36:09.089Z,2.05
2022-08-20T16:39:02.642Z,2.15
2022-08-20T16:41:52.127Z,1.95
2022-08-20T16:44:46.265Z,2.25
2022-08-20T16:47:35.713Z,2.22
2022-08-20T16:50:33.867Z,2.65
2022-08-20T16:53:23.858Z,1.73
2022-08-20T16:56:09.722Z,1.55
2022-08-20T16:58:55.172Z,2.08
2022-08-20T17:01:40.887Z,1.60
2022-08-20T17:04:26.629Z,1.80
2022-08-20T17:07:12.038Z,2.00
2022-08-20T17:10:32.836Z,2.05
2022-08-20T17:13:19.174Z,1.75
2022-08-20T17:16:24.835Z,1.88
2022-08-20T17:19:27.065Z,2.22
2022-08-20T17:22:17.897Z,2.28
2022-08-20T17:25:15.626Z,2.75
2022-08-20T17:28:12.360Z,2.28
2022-08-20T17:30:58.381Z,2.50
2022-08-20T17:33:45.344Z,2.22
2022-08-20T17:36:31.684Z,1.92
2022-08-20T17:39:20.369Z,2.08
2022-08-20T17:42:09.956Z,1.80
2022-08-20T17:45:15.390Z,1.92
2022-08-20T17:48:01.543Z,2.17
2022-08-20T17:50:47.544Z,2.85
2022-08-20T17:53:37.374Z,1.83
2022-08-20T17:56:29.251Z,1.98
2022-08-20T17:59:40.923Z,2.47
2022-08-20T18:02:24.450Z,2.00
2022-08-20T18:05:20.414Z,3.00
2022-08-20T18:08:16.505Z,2.97
2022-08-20T18:11:29.702Z,1.67
2022-08-20T18:14:28.900Z,1.50
2022-08-20T18:17:35.442Z,2.13
2022-08-20T18:20:37.993Z,1.80
2022-08-20T18:23:56.121Z,2.65
2022-08-20T18:26:49.412Z,3.30
2022-08-20T18:29:41.480Z,3.38
2022-08-20T18:32:34.092Z,3.28
2022-08-20T18:35:31.147Z,2.60
2022-08-20T18:38:29.775Z,2.22
2022-08-20T18:41:36.303Z,1.98
2022-08-20T18:44:38.635Z,2.50
2022-08-20T18:47:37.738Z,2.27
2022-08-20T18:50:47.469Z,1.92
2022-08-20T18:53:34.600Z,2.00
2022-08-20T18:56:35.738Z,1.73
2022-08-20T18:59:21.221Z,1.60
2022-08-20T19:02:27.225Z,2.40
2022-08-20T19:05:13.561Z,1.85
2022-08-20T19:08:02.684Z,2.15
2022-08-20T19:10:51.528Z,1.70
2022-08-20T19:13:53.569Z,1.90
2022-08-20T19:16:52.983Z,1.65
2022-08-20T19:19:39.015Z,1.95
2022-08-20T19:22:24.237Z,2.35
2022-08-20T19:25:23.897Z,1.98
2022-08-20T19:28:29.868Z,1.60
2022-08-20T19:31:34.701Z,1.70
2022-08-20T19:34:26.406Z,1.75
2022-08-20T19:37:27.614Z,1.80
2022-08-20T19:40:22.456Z,1.98
2022-08-20T19:43:19.193Z,1.85
2022-08-20T19:46:04.490Z,2.50
2022-08-20T19:49:11.955Z,1.80
2022-08-20T19:51:57.219Z,2.03
2022-08-20T19:54:46.903Z,1.90
2022-08-20T19:57:32.098Z,2.10
2022-08-20T20:00:17.747Z,1.70
2022-08-20T20:03:21.938Z,2.88
2022-08-20T20:06:17.652Z,3.00
2022-08-20T20:09:24.833Z,4.07
2022-08-20T20:12:22.892Z,4.05
2022-08-20T20:15:09.219Z,3.70
2022-08-20T20:17:54.892Z,2.60
2022-08-20T20:20:57.750Z,2.25
2022-08-20T20:23:59.606Z,2.15
2022-08-20T20:26:48.294Z,2.40
2022-08-20T20:29:37.706Z,2.00
2022-08-20T20:32:25.354Z,2.42
2022-08-20T20:35:11.152Z,2.30
2022-08-20T20:38:03.331Z,2.25
2022-08-20T20:40:54.045Z,2.88
2022-08-20T20:43:42.157Z,2.63
2022-08-20T20:46:31.551Z,2.22
2022-08-20T20:49:48.152Z,2.35
2022-08-20T20:52:51.491Z,1.70
2022-08-20T20:55:38.506Z,2.03
2022-08-20T20:58:24.299Z,2.05
2022-08-20T21:01:11.163Z,2.53
2022-08-20T21:03:56.835Z,2.25
2022-08-20T21:06:42.149Z,2.90
2022-08-20T21:09:27.742Z,2.55
2022-08-20T21:12:13.575Z,3.58
2022-08-20T21:14:58.865Z,2.08
2022-08-20T21:17:45.351Z,2.67
2022-08-20T21:20:31.532Z,2.60
2022-08-20T21:23:16.854Z,2.35
2022-08-20T21:26:03.823Z,2.28
2022-08-20T21:28:49.519Z,3.50
2022-08-20T21:31:40.309Z,2.47
2022-08-20T21:34:29.242Z,2.92
2022-08-20T21:37:15.663Z,3.17
2022-08-20T21:40:01.703Z,2.25
2022-08-20T21:42:47.535Z,2.88
2022-08-20T21:45:35.034Z,3.05
2022-08-20T21:48:20.944Z,2.22
2022-08-20T21:51:06.706Z,3.05
2022-08-20T21:53:52.119Z,2.80
2022-08-20T21:56:38.221Z,2.85
2022-08-20T21:59:25.411Z,2.60
2022-08-20T22:02:11.275Z,3.28
2022-08-20T22:04:57.178Z,3.13
2022-08-20T22:07:43.413Z,2.78
2022-08-20T22:10:29.365Z,3.53
2022-08-20T22:13:15.136Z,3.05
2022-08-20T22:16:03.907Z,3.35
2022-08-20T22:18:50.014Z,3.05
2022-08-20T22:21:37.616Z,3.20
2022-08-20T22:24:24.286Z,3.45
2022-08-20T22:27:10.315Z,3.78
2022-08-20T22:29:56.195Z,3.53
2022-08-20T22:32:52.063Z,3.25
2022-08-20T22:35:42.382Z,4.00
2022-08-20T22:38:28.155Z,3.00
2022-08-20T22:41:13.510Z,3.08
2022-08-20T22:44:00.584Z,2.38
2022-08-20T22:46:48.261Z,2.85
2022-08-20T22:49:39.764Z,2.75
2022-08-20T22:52:26.669Z,3.25
2022-08-20T22:55:12.787Z,3.47
2022-08-20T22:57:58.450Z,3.10
2022-08-20T23:00:46.847Z,2.80
2022-08-20T23:03:39.788Z,3.50
2022-08-20T23:06:28.763Z,3.22
2022-08-20T23:09:14.069Z,2.30
2022-08-20T23:12:07.681Z,2.50
2022-08-20T23:14:54.970Z,2.75
2022-08-20T23:17:40.794Z,2.55
2022-08-20T23:20:26.547Z,2.85
2022-08-20T23:23:12.381Z,3.70
2022-08-20T23:25:58.275Z,3.05
2022-08-20T23:28:43.648Z,3.08
2022-08-20T23:31:29.018Z,3.42
2022-08-20T23:34:14.723Z,3.10
2022-08-20T23:37:01.036Z,2.58
2022-08-20T23:39:47.079Z,2.50
2022-08-20T23:42:33.395Z,2.65
2022-08-20T23:45:18.957Z,3.25
2022-08-20T23:48:04.778Z,2.10
2022-08-20T23:50:50.124Z,2.85
2022-08-20T23:53:35.894Z,2.42
2022-08-20T23:56:21.181Z,2.80
2022-08-20T23:59:07.143Z,2.80
